createdAt,value
2019-05-19T00:00:13.986Z,15.09
2019-05-19T00:01:13.736Z,14.95
2019-05-19T00:02:13.783Z,14.94
2019-05-19T00:03:13.596Z,15.04
2019-05-19T00:04:13.547Z,14.94
2019-05-19T00:05:13.413Z,14.97
2019-05-19T00:06:13.342Z,14.97
2019-05-19T00:07:13.269Z,15.05
2019-05-19T00:08:13.216Z,15.04
2019-05-19T00:09:16.376Z,14.95
2019-05-19T00:10:13.015Z,14.97
2019-05-19T00:11:12.928Z,14.95
2019-05-19T00:12:12.915Z,14.79
2019-05-19T00:13:12.760Z,14.74
2019-05-19T00:14:12.679Z,14.82
2019-05-19T00:15:12.699Z,14.79
2019-05-19T00:16:12.525Z,14.75
2019-05-19T00:17:12.547Z,14.85
2019-05-19T00:18:12.357Z,14.72
2019-05-19T00:19:25.775Z,14.78
2019-05-19T00:20:12.191Z,14.66
2019-05-19T00:21:12.118Z,14.66
2019-05-19T00:22:12.066Z,14.78
2019-05-19T00:23:11.949Z,14.75
2019-05-19T00:24:11.862Z,14.74
2019-05-19T00:25:12.877Z,14.72
2019-05-19T00:26:11.708Z,14.72
2019-05-19T00:27:11.689Z,14.66
2019-05-19T00:28:11.556Z,14.67
2019-05-19T00:29:11.574Z,14.72
2019-05-19T00:30:11.385Z,14.61
2019-05-19T00:31:11.377Z,14.64
2019-05-19T00:32:11.225Z,14.60
2019-05-19T00:33:11.189Z,14.60
2019-05-19T00:34:11.045Z,14.64
2019-05-19T00:35:10.996Z,14.61
2019-05-19T00:36:11.003Z,14.54
2019-05-19T00:37:10.826Z,14.53
2019-05-19T00:38:10.720Z,14.53
2019-05-19T00:39:10.715Z,14.61
2019-05-19T00:40:10.575Z,14.53
2019-05-19T00:41:10.480Z,14.45
2019-05-19T00:42:10.470Z,14.52
2019-05-19T00:43:10.316Z,14.45
2019-05-19T00:44:10.234Z,14.46
2019-05-19T00:45:10.245Z,14.42
2019-05-19T00:46:10.068Z,14.45
2019-05-19T00:47:09.998Z,14.39
2019-05-19T00:48:09.958Z,14.42
2019-05-19T00:49:09.827Z,14.41
2019-05-19T00:50:09.744Z,14.45
2019-05-19T00:51:09.773Z,14.42
2019-05-19T00:52:09.592Z,14.48
2019-05-19T00:53:09.635Z,14.38
2019-05-19T00:54:09.419Z,14.41
2019-05-19T00:55:09.396Z,14.44
2019-05-19T00:56:09.263Z,14.49
2019-05-19T00:57:09.242Z,14.46
2019-05-19T00:58:09.091Z,14.49
2019-05-19T00:59:09.116Z,14.46
2019-05-19T01:00:08.927Z,14.45
2019-05-19T01:01:08.851Z,14.36
2019-05-19T01:02:13.264Z,14.48
2019-05-19T01:03:08.679Z,14.41
2019-05-19T01:04:08.603Z,14.45
2019-05-19T01:05:08.541Z,14.41
2019-05-19T01:06:08.437Z,14.48
2019-05-19T01:07:08.469Z,14.31
2019-05-19T01:08:08.287Z,14.42
2019-05-19T01:09:08.265Z,14.42
2019-05-19T01:10:08.107Z,14.41
2019-05-19T01:11:08.027Z,14.39
2019-05-19T01:12:07.994Z,14.39
2019-05-19T01:13:07.876Z,14.26
2019-05-19T01:14:07.780Z,14.27
2019-05-19T01:15:08.720Z,14.36
2019-05-19T01:16:07.623Z,14.23
2019-05-19T01:17:07.599Z,14.24
2019-05-19T01:18:07.479Z,14.29
2019-05-19T01:19:07.414Z,14.26
2019-05-19T01:20:07.289Z,14.16
2019-05-19T01:21:07.221Z,14.21
2019-05-19T01:22:07.224Z,14.21
2019-05-19T01:23:07.061Z,14.20
2019-05-19T01:24:06.964Z,14.23
2019-05-19T01:25:06.944Z,14.24
2019-05-19T01:26:06.810Z,14.19
2019-05-19T01:27:06.726Z,14.23
2019-05-19T01:28:06.691Z,14.23
2019-05-19T01:29:06.558Z,14.17
2019-05-19T01:30:06.475Z,14.16
2019-05-19T01:31:06.471Z,14.20
2019-05-19T01:32:06.327Z,14.13
2019-05-19T01:33:06.313Z,14.09
2019-05-19T01:34:06.155Z,14.05
2019-05-19T01:35:06.062Z,14.08
2019-05-19T01:36:06.094Z,14.05
2019-05-19T01:37:05.902Z,13.98
2019-05-19T01:38:05.831Z,13.98
2019-05-19T01:39:12.774Z,13.98
2019-05-19T01:40:05.657Z,13.93
2019-05-19T01:41:05.580Z,13.90
2019-05-19T01:42:05.519Z,13.96
2019-05-19T01:43:05.434Z,13.87
2019-05-19T01:44:05.435Z,13.93
2019-05-19T01:45:05.254Z,13.96
2019-05-19T01:46:05.163Z,13.98
2019-05-19T01:47:05.146Z,13.91
2019-05-19T01:48:05.020Z,13.93
2019-05-19T01:49:04.923Z,13.93
2019-05-19T01:50:16.822Z,13.90
2019-05-19T01:51:04.762Z,13.86
2019-05-19T01:52:04.772Z,13.86
2019-05-19T01:53:04.607Z,13.90
2019-05-19T01:54:04.578Z,13.83
2019-05-19T01:55:04.432Z,13.87
2019-05-19T01:56:04.392Z,13.86
2019-05-19T01:57:04.269Z,13.75
2019-05-19T01:58:04.231Z,13.76
2019-05-19T01:59:04.126Z,13.79
2019-05-19T02:00:04.111Z,13.71
2019-05-19T02:01:03.946Z,13.76
2019-05-19T02:02:03.855Z,13.75
2019-05-19T02:03:05.804Z,13.76
2019-05-19T02:04:03.700Z,13.76
2019-05-19T02:05:03.627Z,13.66
2019-05-19T02:06:03.651Z,13.65
2019-05-19T02:07:03.452Z,13.65
2019-05-19T02:08:03.480Z,13.65
2019-05-19T02:09:03.287Z,13.62
2019-05-19T02:10:03.260Z,13.66
2019-05-19T02:11:03.124Z,13.68
2019-05-19T02:12:03.055Z,13.68
2019-05-19T02:13:05.169Z,13.62
2019-05-19T02:14:02.874Z,13.63
2019-05-19T02:15:02.840Z,13.57
2019-05-19T02:16:02.831Z,13.55
2019-05-19T02:17:02.632Z,13.48
2019-05-19T02:18:02.566Z,13.54
2019-05-19T02:19:02.612Z,13.48
2019-05-19T02:20:02.414Z,13.47
2019-05-19T02:21:02.438Z,13.50
2019-05-19T02:22:03.243Z,13.54
2019-05-19T02:23:02.164Z,13.51
2019-05-19T02:24:02.172Z,13.50
2019-05-19T02:25:01.977Z,13.48
2019-05-19T02:26:01.888Z,13.46
2019-05-19T02:27:01.844Z,13.48
2019-05-19T02:28:01.747Z,13.46
2019-05-19T02:29:01.650Z,13.47
2019-05-19T02:30:01.718Z,13.48
2019-05-19T02:31:01.481Z,13.31
2019-05-19T02:32:01.408Z,13.35
2019-05-19T02:33:01.409Z,13.44
2019-05-19T02:34:01.237Z,13.31
2019-05-19T02:35:01.165Z,13.25
2019-05-19T02:36:01.189Z,13.29
2019-05-19T02:37:00.989Z,13.31
2019-05-19T02:38:01.030Z,13.29
2019-05-19T02:39:00.830Z,13.36
2019-05-19T02:40:00.806Z,13.24
2019-05-19T02:41:00.672Z,13.25
2019-05-19T02:42:00.614Z,13.19
2019-05-19T02:43:00.516Z,13.29
2019-05-19T02:44:00.528Z,13.21
2019-05-19T02:45:00.333Z,13.24
2019-05-19T02:46:00.257Z,13.16
2019-05-19T02:47:00.241Z,13.14
2019-05-19T02:48:00.116Z,13.09
2019-05-19T02:49:00.009Z,13.07
2019-05-19T02:49:59.960Z,12.96
2019-05-19T02:50:59.837Z,13.12
2019-05-19T02:51:59.758Z,13.10
2019-05-19T02:52:59.774Z,13.09
2019-05-19T02:53:59.615Z,13.07
2019-05-19T02:54:59.516Z,13.07
2019-05-19T02:55:59.480Z,13.01
2019-05-19T02:56:59.351Z,13.06
2019-05-19T02:57:59.298Z,13.06
2019-05-19T02:58:59.203Z,12.99
2019-05-19T02:59:59.201Z,12.96
2019-05-19T03:00:59.022Z,12.94
2019-05-19T03:01:58.940Z,12.88
2019-05-19T03:02:58.910Z,12.91
2019-05-19T03:03:58.786Z,12.96
2019-05-19T03:04:58.693Z,12.81
2019-05-19T03:05:58.628Z,12.88
2019-05-19T03:06:58.532Z,12.85
2019-05-19T03:07:58.540Z,12.85
2019-05-19T03:08:58.398Z,12.92
2019-05-19T03:10:00.298Z,12.95
2019-05-19T03:10:58.199Z,13.01
2019-05-19T03:11:58.121Z,12.94
2019-05-19T03:12:58.060Z,12.96
2019-05-19T03:13:57.969Z,12.95
2019-05-19T03:14:57.869Z,12.91
2019-05-19T03:15:58.800Z,12.94
2019-05-19T03:16:57.708Z,12.91
2019-05-19T03:17:57.686Z,12.95
2019-05-19T03:18:57.566Z,12.89
2019-05-19T03:19:57.497Z,12.85
2019-05-19T03:21:10.322Z,12.84
2019-05-19T03:22:04.386Z,12.85
2019-05-19T03:22:57.210Z,12.87
2019-05-19T03:23:57.250Z,12.88
2019-05-19T03:24:57.051Z,12.92
2019-05-19T03:25:57.027Z,12.81
2019-05-19T03:26:56.884Z,12.87
2019-05-19T03:28:03.799Z,12.81
2019-05-19T03:28:56.735Z,12.84
2019-05-19T03:29:56.748Z,12.89
2019-05-19T03:30:56.553Z,12.85
2019-05-19T03:31:56.558Z,12.88
2019-05-19T03:32:56.404Z,12.87
2019-05-19T03:33:56.401Z,12.88
2019-05-19T03:34:56.228Z,12.91
2019-05-19T03:35:56.178Z,12.87
2019-05-19T03:36:56.062Z,12.85
2019-05-19T03:37:56.087Z,12.85
2019-05-19T03:38:55.918Z,12.88
2019-05-19T03:39:56.920Z,12.91
2019-05-19T03:40:55.730Z,-40.00
2019-05-19T03:41:55.646Z,-40.00
2019-05-19T03:42:55.613Z,12.89
2019-05-19T03:43:55.506Z,12.85
2019-05-19T03:44:55.405Z,12.85
2019-05-19T03:45:55.422Z,12.92
2019-05-19T03:46:55.242Z,12.80
2019-05-19T03:47:55.233Z,12.92
2019-05-19T03:48:55.083Z,12.88
2019-05-19T03:49:55.040Z,12.81
2019-05-19T03:50:54.921Z,12.87
2019-05-19T03:51:54.829Z,12.87
2019-05-19T03:52:55.785Z,12.89
2019-05-19T03:53:54.679Z,12.84
2019-05-19T03:54:54.588Z,12.85
2019-05-19T03:55:54.588Z,12.87
2019-05-19T03:56:54.415Z,12.84
2019-05-19T03:57:54.334Z,-40.00
2019-05-19T03:58:54.322Z,-40.00
2019-05-19T03:59:54.166Z,-40.00
2019-05-19T04:00:54.092Z,12.85
2019-05-19T04:01:54.096Z,12.96
2019-05-19T04:02:53.923Z,12.89
2019-05-19T04:03:53.840Z,12.88
2019-05-19T04:04:53.842Z,12.94
2019-05-19T04:05:53.673Z,12.92
2019-05-19T04:06:53.592Z,-40.00
2019-05-19T04:07:53.578Z,-40.00
2019-05-19T04:08:53.424Z,13.01
2019-05-19T04:09:53.485Z,13.10
2019-05-19T04:10:53.266Z,13.14
2019-05-19T04:11:53.181Z,13.12
2019-05-19T04:12:53.153Z,13.14
2019-05-19T04:13:53.015Z,13.21
2019-05-19T04:14:52.972Z,13.27
2019-05-19T04:15:52.863Z,13.21
2019-05-19T04:16:52.795Z,13.25
2019-05-19T04:17:52.777Z,13.27
2019-05-19T04:18:52.606Z,13.31
2019-05-19T04:19:52.554Z,13.35
2019-05-19T04:20:52.443Z,13.29
2019-05-19T04:21:52.368Z,13.25
2019-05-19T04:22:52.324Z,13.36
2019-05-19T04:23:52.196Z,13.24
2019-05-19T04:24:52.123Z,13.24
2019-05-19T04:25:52.141Z,13.38
2019-05-19T04:26:51.947Z,13.41
2019-05-19T04:27:51.865Z,13.36
2019-05-19T04:28:58.797Z,13.35
2019-05-19T04:29:51.721Z,13.32
2019-05-19T04:30:51.618Z,13.39
2019-05-19T04:31:51.649Z,13.51
2019-05-19T04:32:51.462Z,13.48
2019-05-19T04:33:51.455Z,13.62
2019-05-19T04:34:51.306Z,13.63
2019-05-19T04:35:51.262Z,13.65
2019-05-19T04:36:51.137Z,13.59
2019-05-19T04:37:51.049Z,13.57
2019-05-19T04:38:51.083Z,13.54
2019-05-19T04:39:50.900Z,13.62
2019-05-19T04:40:50.805Z,13.63
2019-05-19T04:41:50.795Z,13.66
2019-05-19T04:42:50.639Z,13.63
2019-05-19T04:43:50.564Z,13.66
2019-05-19T04:44:50.545Z,13.63
2019-05-19T04:45:50.399Z,13.76
2019-05-19T04:46:50.320Z,13.72
2019-05-19T04:47:50.331Z,13.83
2019-05-19T04:48:50.148Z,13.75
2019-05-19T04:49:50.165Z,13.81
2019-05-19T04:50:49.992Z,13.79
2019-05-19T04:52:05.515Z,13.79
2019-05-19T04:52:56.819Z,13.79
2019-05-19T04:53:49.752Z,13.81
2019-05-19T04:54:49.671Z,13.75
2019-05-19T04:55:49.672Z,13.80
2019-05-19T04:56:49.503Z,13.79
2019-05-19T04:57:49.419Z,13.84
2019-05-19T04:58:49.396Z,14.02
2019-05-19T04:59:49.268Z,13.99
2019-05-19T05:00:49.289Z,13.99
2019-05-19T05:01:49.089Z,13.94
2019-05-19T05:02:49.012Z,14.01
2019-05-19T05:03:48.998Z,13.99
2019-05-19T05:04:48.864Z,13.93
2019-05-19T05:05:48.767Z,13.94
2019-05-19T05:06:48.715Z,13.93
2019-05-19T05:07:48.607Z,14.02
2019-05-19T05:08:48.626Z,14.06
2019-05-19T05:09:48.453Z,14.06
2019-05-19T05:10:48.438Z,13.94
2019-05-19T05:11:48.279Z,13.99
2019-05-19T05:12:48.244Z,14.06
2019-05-19T05:13:48.122Z,14.06
2019-05-19T05:14:48.088Z,14.11
2019-05-19T05:15:47.955Z,14.05
2019-05-19T05:16:47.878Z,14.17
2019-05-19T05:17:47.816Z,14.19
2019-05-19T05:18:48.047Z,14.17
2019-05-19T05:19:47.641Z,14.13
2019-05-19T05:20:47.584Z,14.11
2019-05-19T05:21:47.464Z,14.27
2019-05-19T05:22:47.384Z,14.26
2019-05-19T05:23:48.322Z,14.34
2019-05-19T05:24:47.238Z,14.34
2019-05-19T05:25:47.206Z,14.39
2019-05-19T05:26:47.062Z,14.45
2019-05-19T05:27:47.024Z,14.38
2019-05-19T05:28:46.892Z,14.48
2019-05-19T05:29:50.347Z,14.53
2019-05-19T05:30:46.737Z,14.56
2019-05-19T05:31:46.655Z,14.61
2019-05-19T05:32:46.647Z,14.64
2019-05-19T05:33:46.491Z,14.67
2019-05-19T05:34:46.487Z,14.72
2019-05-19T05:35:46.336Z,14.74
2019-05-19T05:36:46.369Z,14.74
2019-05-19T05:37:46.392Z,14.80
2019-05-19T05:38:46.177Z,14.94
2019-05-19T05:39:46.029Z,14.98
2019-05-19T05:40:45.981Z,15.05
2019-05-19T05:41:45.842Z,15.16
2019-05-19T05:42:45.788Z,15.25
2019-05-19T05:43:45.687Z,15.33
2019-05-19T05:44:45.626Z,15.31
2019-05-19T05:45:45.533Z,15.31
2019-05-19T05:46:45.506Z,15.37
2019-05-19T05:47:45.361Z,15.35
2019-05-19T05:48:45.314Z,15.35
2019-05-19T05:49:45.219Z,15.48
2019-05-19T05:50:45.229Z,15.53
2019-05-19T05:51:45.041Z,15.41
2019-05-19T05:52:44.959Z,15.55
2019-05-19T05:53:44.940Z,15.62
2019-05-19T05:54:44.814Z,15.73
2019-05-19T05:55:44.712Z,15.73
2019-05-19T05:56:44.654Z,15.71
2019-05-19T05:57:44.562Z,15.78
2019-05-19T05:58:44.482Z,15.84
2019-05-19T05:59:44.412Z,15.95
2019-05-19T06:00:51.338Z,16.07
2019-05-19T06:01:44.239Z,16.08
2019-05-19T06:02:44.154Z,16.27
2019-05-19T06:03:44.072Z,16.40
2019-05-19T06:04:44.037Z,16.51
2019-05-19T06:05:43.917Z,16.63
2019-05-19T06:06:45.779Z,16.73
2019-05-19T06:07:43.814Z,16.91
2019-05-19T06:08:43.683Z,17.07
2019-05-19T06:09:43.662Z,17.20
2019-05-19T06:10:43.519Z,17.18
2019-05-19T06:11:43.531Z,17.27
2019-05-19T06:12:43.360Z,17.30
2019-05-19T06:13:43.282Z,17.33
2019-05-19T06:14:43.245Z,17.43
2019-05-19T06:15:43.717Z,17.46
2019-05-19T06:16:43.040Z,17.65
2019-05-19T06:17:43.094Z,17.81
2019-05-19T06:18:42.888Z,17.84
2019-05-19T06:19:42.802Z,17.98
2019-05-19T06:20:42.808Z,18.17
2019-05-19T06:21:42.652Z,18.32
2019-05-19T06:22:55.752Z,18.44
2019-05-19T06:23:42.491Z,18.42
2019-05-19T06:24:42.493Z,18.54
2019-05-19T06:25:42.351Z,18.56
2019-05-19T06:26:42.308Z,18.59
2019-05-19T06:27:42.192Z,18.71
2019-05-19T06:28:42.109Z,18.69
2019-05-19T06:29:42.119Z,18.75
2019-05-19T06:30:41.986Z,18.86
2019-05-19T06:31:41.879Z,18.82
2019-05-19T06:32:41.832Z,18.72
2019-05-19T06:33:41.722Z,18.65
2019-05-19T06:34:41.644Z,18.78
2019-05-19T06:35:41.679Z,18.71
2019-05-19T06:36:41.498Z,18.64
2019-05-19T06:37:41.445Z,18.83
2019-05-19T06:38:41.368Z,18.86
2019-05-19T06:39:41.264Z,18.97
2019-05-19T06:40:41.210Z,19.05
2019-05-19T06:41:41.176Z,18.96
2019-05-19T06:42:41.031Z,18.94
2019-05-19T06:43:40.988Z,19.06
2019-05-19T06:44:40.881Z,18.84
2019-05-19T06:45:41.852Z,18.99
2019-05-19T06:46:40.731Z,19.06
2019-05-19T06:47:40.651Z,19.05
2019-05-19T06:48:40.611Z,19.07
2019-05-19T06:49:40.507Z,19.17
2019-05-19T06:50:40.971Z,19.13
2019-05-19T06:51:49.338Z,19.12
2019-05-19T06:52:40.277Z,19.09
2019-05-19T06:53:40.197Z,19.05
2019-05-19T06:54:40.144Z,19.15
2019-05-19T06:55:40.060Z,19.12
2019-05-19T06:56:40.054Z,19.15
2019-05-19T06:57:39.896Z,19.30
2019-05-19T06:58:39.864Z,19.39
2019-05-19T06:59:39.737Z,19.38
2019-05-19T07:00:39.723Z,19.24
2019-05-19T07:01:39.586Z,19.25
2019-05-19T07:02:39.581Z,19.13
2019-05-19T07:03:39.435Z,19.27
2019-05-19T07:04:39.363Z,19.35
2019-05-19T07:05:39.339Z,19.27
2019-05-19T07:06:39.234Z,19.30
2019-05-19T07:07:39.126Z,19.34
2019-05-19T07:08:39.110Z,19.30
2019-05-19T07:09:38.986Z,19.38
2019-05-19T07:10:43.357Z,19.49
2019-05-19T07:11:38.829Z,19.50
2019-05-19T07:12:38.833Z,19.52
2019-05-19T07:13:38.671Z,19.67
2019-05-19T07:14:38.639Z,19.60
2019-05-19T07:15:38.537Z,19.53
2019-05-19T07:16:38.554Z,19.27
2019-05-19T07:17:38.372Z,19.10
2019-05-19T07:18:38.312Z,19.10
2019-05-19T07:19:38.265Z,19.24
2019-05-19T07:20:38.160Z,19.13
2019-05-19T07:21:38.063Z,19.17
2019-05-19T07:22:38.079Z,19.15
2019-05-19T07:23:37.911Z,19.13
2019-05-19T07:24:37.841Z,19.13
2019-05-19T07:25:39.755Z,19.21
2019-05-19T07:26:37.715Z,19.27
2019-05-19T07:27:37.607Z,19.31
2019-05-19T07:28:37.611Z,19.28
2019-05-19T07:29:37.477Z,19.23
2019-05-19T07:30:42.884Z,19.27
2019-05-19T07:31:37.297Z,19.42
2019-05-19T07:32:37.330Z,19.53
2019-05-19T07:33:37.159Z,19.57
2019-05-19T07:34:37.064Z,19.61
2019-05-19T07:35:37.081Z,19.62
2019-05-19T07:36:36.918Z,19.65
2019-05-19T07:37:36.844Z,19.68
2019-05-19T07:38:36.873Z,19.75
2019-05-19T07:39:36.686Z,19.87
2019-05-19T07:40:36.714Z,20.01
2019-05-19T07:41:36.532Z,19.95
2019-05-19T07:42:36.452Z,20.10
2019-05-19T07:43:44.369Z,20.02
2019-05-19T07:44:36.333Z,20.30
2019-05-19T07:45:36.232Z,20.35
2019-05-19T07:46:36.203Z,20.58
2019-05-19T07:47:36.062Z,20.58
2019-05-19T07:48:35.993Z,20.69
2019-05-19T07:49:36.018Z,20.71
2019-05-19T07:50:38.083Z,20.78
2019-05-19T07:51:35.772Z,20.90
2019-05-19T07:52:35.732Z,20.98
2019-05-19T07:53:43.008Z,21.01
2019-05-19T07:54:35.545Z,21.05
2019-05-19T07:55:35.538Z,20.98
2019-05-19T07:56:35.381Z,21.03
2019-05-19T07:57:35.361Z,21.18
2019-05-19T07:58:35.324Z,21.22
2019-05-19T07:59:35.157Z,21.22
2019-05-19T08:00:35.163Z,21.38
2019-05-19T08:01:35.082Z,21.48
2019-05-19T08:02:34.925Z,21.42
2019-05-19T08:03:34.946Z,21.49
2019-05-19T08:04:34.778Z,21.52
2019-05-19T08:05:34.712Z,21.53
2019-05-19T08:06:34.763Z,21.64
2019-05-19T08:07:34.559Z,21.48
2019-05-19T08:08:34.481Z,21.59
2019-05-19T08:09:34.625Z,21.71
2019-05-19T08:10:34.347Z,21.82
2019-05-19T08:11:34.263Z,22.04
2019-05-19T08:12:34.233Z,22.20
2019-05-19T08:13:34.105Z,22.31
2019-05-19T08:14:34.144Z,22.21
2019-05-19T08:15:33.969Z,22.23
2019-05-19T08:16:33.889Z,22.33
2019-05-19T08:17:33.809Z,22.52
2019-05-19T08:18:33.738Z,22.67
2019-05-19T08:19:33.769Z,22.81
2019-05-19T08:20:33.601Z,23.00
2019-05-19T08:21:33.517Z,23.12
2019-05-19T08:22:33.489Z,23.09
2019-05-19T08:23:33.373Z,23.23
2019-05-19T08:24:33.297Z,23.41
2019-05-19T08:25:33.328Z,23.56
2019-05-19T08:26:33.154Z,23.59
2019-05-19T08:27:33.082Z,23.56
2019-05-19T08:28:33.110Z,23.34
2019-05-19T08:29:32.950Z,23.49
2019-05-19T08:30:33.302Z,23.77
2019-05-19T08:31:32.878Z,23.94
2019-05-19T08:32:32.726Z,24.04
2019-05-19T08:33:32.672Z,24.24
2019-05-19T08:34:32.693Z,24.30
2019-05-19T08:35:32.618Z,24.46
2019-05-19T08:36:32.462Z,24.53
2019-05-19T08:37:32.523Z,24.59
2019-05-19T08:38:32.317Z,24.66
2019-05-19T08:39:32.326Z,24.89
2019-05-19T08:40:32.217Z,25.04
2019-05-19T08:41:32.157Z,25.31
2019-05-19T08:42:32.044Z,25.45
2019-05-19T08:43:31.979Z,25.54
2019-05-19T08:44:31.940Z,25.46
2019-05-19T08:45:31.844Z,25.63
2019-05-19T08:46:32.187Z,25.79
2019-05-19T08:47:31.756Z,25.91
2019-05-19T08:48:31.643Z,26.06
2019-05-19T08:49:31.599Z,25.69
2019-05-19T08:50:31.636Z,25.76
2019-05-19T08:51:31.454Z,25.60
2019-05-19T08:52:31.376Z,25.56
2019-05-19T08:53:31.385Z,25.83
2019-05-19T08:54:31.242Z,26.08
2019-05-19T08:55:31.198Z,26.49
2019-05-19T08:56:31.130Z,26.54
2019-05-19T08:57:31.209Z,26.16
2019-05-19T08:58:30.986Z,25.93
2019-05-19T08:59:30.921Z,25.97
2019-05-19T09:00:34.923Z,25.93
2019-05-19T09:01:30.814Z,25.90
2019-05-19T09:02:30.725Z,26.20
2019-05-19T09:03:30.838Z,26.41
2019-05-19T09:04:30.594Z,26.66
2019-05-19T09:05:30.658Z,26.91
2019-05-19T09:06:30.476Z,26.94
2019-05-19T09:07:30.454Z,26.32
2019-05-19T09:08:30.336Z,26.29
2019-05-19T09:09:30.476Z,26.28
2019-05-19T09:10:30.215Z,26.51
2019-05-19T09:11:30.309Z,26.65
2019-05-19T09:12:30.079Z,26.56
2019-05-19T09:13:30.013Z,26.79
2019-05-19T09:14:30.152Z,27.02
2019-05-19T09:15:29.888Z,27.13
2019-05-19T09:16:29.840Z,27.40
2019-05-19T09:17:37.594Z,27.08
2019-05-19T09:18:29.705Z,27.08
2019-05-19T09:19:29.783Z,27.42
2019-05-19T09:20:29.580Z,27.68
2019-05-19T09:21:29.635Z,27.84
2019-05-19T09:22:29.445Z,27.30
2019-05-19T09:23:29.602Z,26.78
2019-05-19T09:24:30.977Z,26.27
2019-05-19T09:25:29.261Z,26.47
2019-05-19T09:26:29.455Z,26.59
2019-05-19T09:27:29.135Z,26.78
2019-05-19T09:28:29.080Z,27.02
2019-05-19T09:29:29.026Z,27.30
2019-05-19T09:30:28.943Z,27.15
2019-05-19T09:31:28.891Z,27.06
2019-05-19T09:32:28.984Z,27.03
2019-05-19T09:33:28.760Z,26.98
2019-05-19T09:34:28.691Z,26.36
2019-05-19T09:35:28.641Z,26.11
2019-05-19T09:36:28.588Z,25.76
2019-05-19T09:37:28.504Z,25.78
2019-05-19T09:38:28.459Z,26.12
2019-05-19T09:39:28.379Z,26.29
2019-05-19T09:40:28.321Z,25.74
2019-05-19T09:41:28.263Z,26.01
2019-05-19T09:42:28.193Z,26.46
2019-05-19T09:43:28.123Z,26.44
2019-05-19T09:44:28.055Z,26.76
2019-05-19T09:45:27.997Z,27.08
2019-05-19T09:46:27.943Z,27.15
2019-05-19T09:47:27.869Z,26.72
2019-05-19T09:48:27.808Z,26.76
2019-05-19T09:49:27.738Z,26.98
2019-05-19T09:50:27.678Z,27.16
2019-05-19T09:51:27.632Z,27.01
2019-05-19T09:52:27.550Z,27.31
2019-05-19T09:53:27.481Z,27.65
2019-05-19T09:54:27.443Z,27.59
2019-05-19T09:55:27.361Z,27.48
2019-05-19T09:56:27.308Z,26.71
2019-05-19T09:57:27.235Z,26.75
2019-05-19T09:58:27.167Z,26.49
2019-05-19T09:59:27.100Z,26.53
2019-05-19T10:00:27.045Z,26.68
2019-05-19T10:01:26.993Z,26.81
2019-05-19T10:02:26.914Z,26.66
2019-05-19T10:03:26.838Z,27.05
2019-05-19T10:04:26.786Z,27.16
2019-05-19T10:05:26.725Z,26.83
2019-05-19T10:06:26.662Z,26.53
2019-05-19T10:07:26.580Z,26.71
2019-05-19T10:08:26.523Z,26.71
2019-05-19T10:09:26.451Z,26.68
2019-05-19T10:10:26.397Z,26.81
2019-05-19T10:11:26.339Z,27.12
2019-05-19T10:12:26.260Z,27.30
2019-05-19T10:13:26.193Z,27.42
2019-05-19T10:14:26.134Z,27.48
2019-05-19T10:15:26.055Z,27.13
2019-05-19T10:16:26.025Z,27.20
2019-05-19T10:17:25.930Z,27.06
2019-05-19T10:18:25.875Z,27.06
2019-05-19T10:19:25.805Z,27.01
2019-05-19T10:20:25.754Z,26.56
2019-05-19T10:21:25.738Z,26.08
2019-05-19T10:22:25.612Z,26.24
2019-05-19T10:23:25.539Z,26.57
2019-05-19T10:24:25.488Z,26.23
2019-05-19T10:25:25.408Z,25.64
2019-05-19T10:26:25.346Z,24.99
2019-05-19T10:27:25.292Z,25.19
2019-05-19T10:28:25.213Z,25.24
2019-05-19T10:29:25.167Z,25.39
2019-05-19T10:30:25.085Z,25.51
2019-05-19T10:31:25.018Z,25.74
2019-05-19T10:32:24.964Z,25.61
2019-05-19T10:33:24.878Z,25.63
2019-05-19T10:34:24.809Z,25.41
2019-05-19T10:35:24.751Z,25.16
2019-05-19T10:36:24.676Z,25.42
2019-05-19T10:37:24.626Z,25.35
2019-05-19T10:38:24.552Z,25.36
2019-05-19T10:39:24.477Z,25.34
2019-05-19T10:40:24.418Z,25.42
2019-05-19T10:41:24.337Z,25.54
2019-05-19T10:42:24.291Z,25.56
2019-05-19T10:43:24.211Z,25.49
2019-05-19T10:44:24.139Z,25.46
2019-05-19T10:45:24.082Z,25.48
2019-05-19T10:46:24.002Z,25.49
2019-05-19T10:47:23.948Z,25.53
2019-05-19T10:48:23.880Z,25.14
2019-05-19T10:49:23.815Z,24.45
2019-05-19T10:50:23.748Z,24.24
2019-05-19T10:51:23.666Z,24.37
2019-05-19T10:52:23.619Z,24.63
2019-05-19T10:53:23.523Z,24.98
2019-05-19T10:54:23.462Z,25.07
2019-05-19T10:55:35.607Z,25.27
2019-05-19T10:56:23.324Z,25.59
2019-05-19T10:57:23.296Z,25.86
2019-05-19T10:58:23.195Z,25.89
2019-05-19T10:59:23.114Z,25.79
2019-05-19T11:00:23.062Z,25.89
2019-05-19T11:01:22.980Z,25.79
2019-05-19T11:02:22.931Z,25.63
2019-05-19T11:03:22.846Z,25.93
2019-05-19T11:04:22.778Z,26.24
2019-05-19T11:05:22.704Z,26.38
2019-05-19T11:06:22.644Z,26.42
2019-05-19T11:07:22.592Z,26.50
2019-05-19T11:08:22.497Z,26.66
2019-05-19T11:09:22.448Z,26.72
2019-05-19T11:10:22.381Z,26.54
2019-05-19T11:11:22.297Z,26.31
2019-05-19T11:12:22.252Z,26.16
2019-05-19T11:13:22.173Z,26.34
2019-05-19T11:14:22.097Z,25.82
2019-05-19T11:15:22.036Z,25.89
2019-05-19T11:16:21.997Z,25.89
2019-05-19T11:17:21.961Z,25.42
2019-05-19T11:18:21.825Z,25.66
2019-05-19T11:19:21.757Z,26.17
2019-05-19T11:20:21.696Z,26.56
2019-05-19T11:21:21.637Z,26.65
2019-05-19T11:22:21.575Z,27.01
2019-05-19T11:23:21.496Z,27.31
2019-05-19T11:24:21.466Z,27.35
2019-05-19T11:25:33.507Z,27.68
2019-05-19T11:26:21.288Z,27.66
2019-05-19T11:27:21.245Z,27.99
2019-05-19T11:28:21.164Z,27.96
2019-05-19T11:29:21.101Z,27.46
2019-05-19T11:30:21.023Z,27.11
2019-05-19T11:31:20.964Z,27.35
2019-05-19T11:32:20.912Z,27.71
2019-05-19T11:33:20.843Z,27.86
2019-05-19T11:34:20.776Z,27.62
2019-05-19T11:35:20.710Z,27.05
2019-05-19T11:36:20.638Z,26.98
2019-05-19T11:37:20.590Z,27.27
2019-05-19T11:38:20.500Z,27.46
2019-05-19T11:39:20.448Z,27.53
2019-05-19T11:40:20.379Z,27.69
2019-05-19T11:41:20.317Z,27.06
2019-05-19T11:42:20.271Z,26.44
2019-05-19T11:43:20.185Z,25.91
2019-05-19T11:44:20.119Z,25.91
2019-05-19T11:45:20.085Z,25.56
2019-05-19T11:46:19.989Z,25.42
2019-05-19T11:47:19.945Z,25.29
2019-05-19T11:48:19.845Z,25.08
2019-05-19T11:49:19.779Z,25.08
2019-05-19T11:50:19.725Z,25.53
2019-05-19T11:51:19.646Z,25.94
2019-05-19T11:52:19.594Z,26.35
2019-05-19T11:53:19.517Z,26.69
2019-05-19T11:54:19.447Z,26.34
2019-05-19T11:55:19.378Z,26.13
2019-05-19T11:56:19.312Z,26.36
2019-05-19T11:57:19.256Z,26.68
2019-05-19T11:58:19.195Z,26.64
2019-05-19T11:59:19.108Z,26.31
2019-05-19T12:00:19.034Z,26.08
2019-05-19T12:01:18.973Z,26.21
2019-05-19T12:02:18.916Z,26.21
2019-05-19T12:03:18.844Z,26.35
2019-05-19T12:04:18.761Z,26.20
2019-05-19T12:05:18.690Z,26.59
2019-05-19T12:06:18.648Z,26.72
2019-05-19T12:07:18.587Z,26.42
2019-05-19T12:08:18.500Z,26.75
2019-05-19T12:09:18.435Z,27.13
2019-05-19T12:10:18.359Z,27.46
2019-05-19T12:11:18.325Z,27.50
2019-05-19T12:12:18.251Z,26.98
2019-05-19T12:13:18.178Z,27.03
2019-05-19T12:14:18.095Z,26.86
2019-05-19T12:15:18.039Z,26.94
2019-05-19T12:16:17.961Z,27.13
2019-05-19T12:17:17.908Z,27.58
2019-05-19T12:18:17.829Z,27.83
2019-05-19T12:19:17.765Z,27.66
2019-05-19T12:20:17.693Z,27.48
2019-05-19T12:21:17.622Z,27.48
2019-05-19T12:22:17.592Z,27.66
2019-05-19T12:23:17.482Z,27.61
2019-05-19T12:24:17.419Z,27.46
2019-05-19T12:25:17.361Z,27.31
2019-05-19T12:26:23.125Z,27.30
2019-05-19T12:27:17.236Z,27.25
2019-05-19T12:28:17.252Z,27.31
2019-05-19T12:29:17.096Z,27.72
2019-05-19T12:30:17.029Z,27.96
2019-05-19T12:31:17.066Z,28.09
2019-05-19T12:32:16.907Z,28.35
2019-05-19T12:33:16.832Z,28.36
2019-05-19T12:34:16.759Z,28.52
2019-05-19T12:35:16.697Z,28.35
2019-05-19T12:36:16.664Z,27.90
2019-05-19T12:37:16.573Z,27.87
2019-05-19T12:38:16.493Z,28.02
2019-05-19T12:39:16.501Z,28.38
2019-05-19T12:40:16.365Z,28.13
2019-05-19T12:41:16.519Z,26.87
2019-05-19T12:42:16.256Z,26.73
2019-05-19T12:43:16.322Z,26.28
2019-05-19T12:44:16.095Z,25.96
2019-05-19T12:45:16.030Z,25.46
2019-05-19T12:46:16.808Z,25.31
2019-05-19T12:47:15.919Z,25.39
2019-05-19T12:48:15.836Z,25.35
2019-05-19T12:49:15.960Z,25.48
2019-05-19T12:50:15.694Z,25.49
2019-05-19T12:51:15.763Z,25.56